Time;durP1;ratioP1;P1;durP2;ratioP2;P2;SDS_P1;SDS_P2;PMS_P1;PMS_P2;Temp;Humidity;BMP_temperature;BMP_pressure;BME280_temperature;BME280_humidity;BME280_pressure;Samples;Min_cycle;Max_cycle;Signal;HPM_P1;HPM_P2
2022/04/08 00:00:02;;;;;;;2.53;0.70;;;;;;;3.19;100.00;94683.88;5030786;28;20035;-70
2022/04/08 00:02:30;;;;;;;6.70;1.00;;;;;;;3.23;100.00;94700.84;5025984;28;20076;-71
2022/04/08 00:04:56;;;;;;;2.92;0.60;;;;;;;3.24;100.00;94701.63;5028483;28;20116;-70
2022/04/08 00:07:22;;;;;;;0.98;0.50;;;;;;;3.07;100.00;94706.97;5025188;28;20396;-70
2022/04/08 00:09:47;;;;;;;3.03;0.47;;;;;;;3.16;100.00;94702.06;5026334;28;20045;-69
2022/04/08 00:12:12;;;;;;;2.63;0.77;;;;;;;3.17;100.00;94716.88;5025704;28;20526;-68
2022/04/08 00:14:38;;;;;;;2.88;0.80;;;;;;;3.21;100.00;94710.06;5025183;28;20067;-70
2022/04/08 00:17:04;;;;;;;2.20;0.82;;;;;;;3.20;100.00;94695.25;5023505;28;20041;-69
2022/04/08 00:19:31;;;;;;;5.30;1.30;;;;;;;3.16;100.00;94708.16;5024000;28;20041;-69
2022/04/08 00:21:56;;;;;;;2.97;0.50;;;;;;;3.21;100.00;94696.84;5025159;28;20506;-69
2022/04/08 00:24:22;;;;;;;2.65;0.93;;;;;;;3.24;100.00;94706.91;5026270;28;20440;-69
2022/04/08 00:26:47;;;;;;;2.45;0.90;;;;;;;3.24;100.00;94706.91;5058726;28;20044;-69
2022/04/08 00:29:13;;;;;;;3.17;0.90;;;;;;;3.21;100.00;94694.22;5026335;28;20033;-70
2022/04/08 00:31:39;;;;;;;2.97;0.63;;;;;;;3.21;100.00;94710.88;5027130;28;20521;-70
2022/04/08 00:34:04;;;;;;;2.58;0.90;;;;;;;3.19;100.00;94712.13;5023721;28;20045;-69
2022/04/08 00:36:32;;;;;;;2.80;0.70;;;;;;;3.15;100.00;94721.59;5027452;28;20041;-69
2022/04/08 00:38:58;;;;;;;0.68;0.40;;;;;;;3.14;100.00;94717.38;5023384;28;20047;-70
2022/04/08 00:41:24;;;;;;;3.45;0.90;;;;;;;3.16;100.00;94708.16;5038975;28;20443;-69
2022/04/08 00:43:49;;;;;;;2.50;0.80;;;;;;;3.18;100.00;94715.81;5024384;28;20045;-70
2022/04/08 00:46:15;;;;;;;3.25;0.93;;;;;;;3.16;100.00;94720.56;5024795;28;20033;-69
2022/04/08 00:48:40;;;;;;;1.60;0.60;;;;;;;3.14;100.00;94727.94;5023846;28;20045;-69
2022/04/08 00:51:07;;;;;;;3.28;0.73;;;;;;;3.14;100.00;94728.75;5025692;28;20528;-71
2022/04/08 00:53:35;;;;;;;3.25;0.95;;;;;;;3.16;100.00;94747.00;5025356;28;20322;-69
2022/04/08 00:56:04;;;;;;;2.72;0.80;;;;;;;3.17;100.00;94752.03;5024422;28;20535;-69
2022/04/08 00:58:31;;;;;;;3.58;1.10;;;;;;;3.18;100.00;94736.97;5023660;28;20090;-69
2022/04/08 01:00:57;;;;;;;2.78;0.70;;;;;;;3.15;100.00;94745.41;5023133;28;20615;-70
2022/04/08 01:03:22;;;;;;;4.15;0.80;;;;;;;3.20;100.00;94748.13;5022051;28;20045;-70
2022/04/08 01:05:48;;;;;;;1.25;0.60;;;;;;;3.23;100.00;94758.19;5027334;28;20155;-69
2022/04/08 01:08:17;;;;;;;1.98;0.80;;;;;;;3.17;100.00;94746.75;5023161;28;20037;-70
2022/04/08 01:10:43;;;;;;;3.00;0.90;;;;;;;3.21;100.00;94750.50;5024939;28;20045;-69
2022/04/08 01:13:09;;;;;;;3.75;1.15;;;;;;;3.22;100.00;94761.88;5024816;28;20038;-70
2022/04/08 01:15:34;;;;;;;2.60;0.98;;;;;;;3.22;100.00;94749.47;5022745;28;20041;-70
2022/04/08 01:18:00;;;;;;;2.50;1.10;;;;;;;3.20;100.00;94756.06;5024937;28;20645;-70
2022/04/08 01:20:26;;;;;;;3.78;1.25;;;;;;;3.20;100.00;94748.13;5021758;28;20256;-70
2022/04/08 01:22:52;;;;;;;5.88;1.42;;;;;;;3.26;100.00;94762.97;5026220;28;20049;-68
2022/04/08 01:25:17;;;;;;;1.88;0.77;;;;;;;3.24;100.00;94759.78;5023801;28;20040;-69
2022/04/08 01:27:43;;;;;;;2.60;0.95;;;;;;;3.22;100.00;94772.47;5020631;28;20151;-69
2022/04/08 01:30:12;;;;;;;4.20;1.48;;;;;;;3.24;100.00;94767.72;5022157;28;20293;-69
2022/04/08 01:32:38;;;;;;;1.98;1.00;;;;;;;3.22;100.00;94765.34;5024639;28;20472;-69
2022/04/08 01:35:04;;;;;;;3.28;1.10;;;;;;;3.18;100.00;94768.69;5023645;28;20462;-69
2022/04/08 01:37:30;;;;;;;2.15;1.10;;;;;;;3.20;100.00;94785.13;5024375;28;20233;-69
2022/04/08 01:39:56;;;;;;;3.17;1.17;;;;;;;3.21;100.00;94782.25;5022400;28;20535;-69
2022/04/08 01:42:24;;;;;;;2.08;1.10;;;;;;;3.23;100.00;94792.56;5024845;28;20044;-69
2022/04/08 01:44:54;;;;;;;3.63;1.48;;;;;;;3.21;100.00;94781.44;5023649;28;20468;-69
2022/04/08 01:47:19;;;;;;;1.65;1.00;;;;;;;3.15;100.00;94785.84;5023771;28;20037;-69
2022/04/08 01:49:45;;;;;;;1.90;0.98;;;;;;;3.17;100.00;94793.53;5021807;28;20507;-70
2022/04/08 01:52:11;;;;;;;8.15;2.15;;;;;;;3.17;100.00;94822.59;5024567;28;20041;-70
2022/04/08 01:54:36;;;;;;;2.65;1.23;;;;;;;3.16;100.00;94794.56;5025264;28;20092;-70
2022/04/08 01:57:02;;;;;;;6.05;2.60;;;;;;;3.18;100.00;94808.34;5023916;28;20510;-70
2022/04/08 01:59:27;;;;;;;4.78;1.85;;;;;;;3.19;100.00;94804.66;5022190;28;20049;-69
2022/04/08 02:01:53;;;;;;;5.68;1.75;;;;;;;3.26;100.00;94815.84;5022162;28;20132;-71
2022/04/08 02:04:18;;;;;;;7.78;1.88;;;;;;;3.24;100.00;94810.03;5022583;28;20068;-70
2022/04/08 02:06:44;;;;;;;7.45;2.00;;;;;;;3.24;100.00;94812.66;5024675;28;20037;-69
2022/04/08 02:09:11;;;;;;;3.45;1.77;;;;;;;3.25;100.00;94827.47;5022824;28;20476;-70
2022/04/08 02:11:38;;;;;;;10.77;2.80;;;;;;;3.25;100.00;94824.84;5024671;28;20037;-68
2022/04/08 02:14:04;;;;;;;4.95;2.35;;;;;;;3.24;100.00;94825.88;5021682;28;20111;-69
2022/04/08 02:16:29;;;;;;;2.88;1.67;;;;;;;3.23;100.00;94835.66;5022719;28;20045;-71
2022/04/08 02:18:55;;;;;;;4.05;1.50;;;;;;;3.21;100.00;94837.75;5021177;28;20114;-69
2022/04/08 02:21:21;;;;;;;5.30;2.30;;;;;;;3.23;100.00;94840.94;5022709;28;20788;-69
2022/04/08 02:23:48;;;;;;;5.53;2.05;;;;;;;3.28;100.00;94850.81;5023761;28;20041;-69
2022/04/08 02:26:14;;;;;;;2.05;1.02;;;;;;;3.27;100.00;94857.16;5023626;28;20547;-69
2022/04/08 02:28:40;;;;;;;3.63;1.33;;;;;;;3.18;100.00;94840.06;5021390;28;20370;-71
2022/04/08 02:31:06;;;;;;;7.75;2.33;;;;;;;3.19;100.00;94852.22;5021276;28;20041;-70
2022/04/08 02:33:32;;;;;;;4.88;1.65;;;;;;;3.23;100.00;94853.38;5024367;28;20041;-70
2022/04/08 02:35:57;;;;;;;7.22;1.45;;;;;;;3.18;100.00;94864.66;5024443;28;20415;-70
2022/04/08 02:38:22;;;;;;;5.35;1.70;;;;;;;3.21;100.00;94858.09;5022124;28;20065;-69
2022/04/08 02:40:48;;;;;;;4.05;1.80;;;;;;;3.21;100.00;94858.91;5022751;28;20114;-69
2022/04/08 02:43:13;;;;;;;3.42;1.58;;;;;;;3.26;100.00;94863.44;5022367;28;20037;-71
2022/04/08 02:45:39;;;;;;;4.55;1.30;;;;;;;3.20;100.00;94857.31;5024284;28;20088;-71
2022/04/08 02:48:05;;;;;;;2.63;1.30;;;;;;;3.22;100.00;94863.13;5019729;28;20091;-69
2022/04/08 02:50:30;;;;;;;3.45;1.50;;;;;;;3.25;100.00;94867.13;5024911;28;20140;-70
2022/04/08 02:52:56;;;;;;;6.53;1.83;;;;;;;3.15;100.00;94869.63;5028523;28;20041;-70
2022/04/08 02:55:21;;;;;;;1.90;1.00;;;;;;;3.16;100.00;94879.16;5025489;28;20524;-71
2022/04/08 02:57:48;;;;;;;6.70;1.77;;;;;;;3.15;100.00;94866.97;5026996;28;20048;-69
2022/04/08 03:00:18;;;;;;;5.03;1.85;;;;;;;3.12;100.00;94873.56;5026604;28;20443;-70
2022/04/08 03:02:44;;;;;;;5.63;1.67;;;;;;;3.15;100.00;94882.84;5025962;28;20136;-69
2022/04/08 03:05:10;;;;;;;8.43;1.98;;;;;;;3.11;100.00;94877.22;5026590;28;20083;-68
2022/04/08 03:07:36;;;;;;;2.08;0.93;;;;;;;3.03;100.00;94919.91;5026285;28;20345;-71
2022/04/08 03:10:08;;;;;;;4.57;1.48;;;;;;;3.06;100.00;94890.38;5024406;28;20475;-69
2022/04/08 03:12:34;;;;;;;1.25;0.70;;;;;;;3.07;100.00;94892.78;5029157;28;20048;-69
2022/04/08 03:14:59;;;;;;;4.32;1.98;;;;;;;3.10;100.00;94888.03;5026637;28;20070;-68
2022/04/08 03:17:25;;;;;;;4.43;1.48;;;;;;;3.13;100.00;94908.72;5024918;28;20037;-70
2022/04/08 03:19:51;;;;;;;4.88;1.92;;;;;;;3.16;100.00;94898.47;5029225;28;20428;-69
2022/04/08 03:22:20;;;;;;;5.20;1.35;;;;;;;3.15;100.00;94904.00;5026890;28;20441;-70
2022/04/08 03:24:46;;;;;;;2.50;1.25;;;;;;;3.12;100.00;94904.47;5027516;28;20427;-69
2022/04/08 03:27:12;;;;;;;10.60;2.20;;;;;;;3.03;100.00;94907.50;5024597;28;20148;-70
2022/04/08 03:29:38;;;;;;;4.82;1.98;;;;;;;2.84;100.00;94913.25;5025347;28;20028;-71
2022/04/08 03:32:05;;;;;;;7.07;2.15;;;;;;;2.73;100.00;94905.13;5023781;28;20045;-68
2022/04/08 03:34:30;;;;;;;3.10;1.42;;;;;;;2.72;100.00;94900.06;5026929;28;20048;-70
2022/04/08 03:36:56;;;;;;;3.90;2.10;;;;;;;2.78;100.00;94909.69;5026447;28;20053;-69
2022/04/08 03:39:22;;;;;;;4.78;1.98;;;;;;;2.85;100.00;94917.47;5028624;28;20123;-69
2022/04/08 03:41:48;;;;;;;6.55;1.98;;;;;;;2.91;100.00;94914.69;5026244;28;20048;-68
2022/04/08 03:44:14;;;;;;;4.18;1.38;;;;;;;2.93;100.00;94898.59;5028565;28;20115;-69
2022/04/08 03:46:41;;;;;;;5.25;1.92;;;;;;;2.95;100.00;94902.59;5025218;28;20041;-69
2022/04/08 03:49:14;;;;;;;6.80;1.88;;;;;;;2.95;100.00;94905.22;5024564;28;20175;-69
2022/04/08 03:51:40;;;;;;;10.05;2.47;;;;;;;3.00;100.00;94907.97;5023066;28;20057;-70
2022/04/08 03:54:07;;;;;;;6.32;2.10;;;;;;;2.95;100.00;94915.81;5026103;28;20261;-69
2022/04/08 03:56:33;;;;;;;5.20;1.58;;;;;;;2.89;100.00;94910.69;5029883;28;20037;-69
2022/04/08 03:58:59;;;;;;;3.65;1.73;;;;;;;2.91;100.00;94927.09;5025440;28;20045;-69
2022/04/08 04:01:25;;;;;;;3.30;1.85;;;;;;;2.87;100.00;94928.59;5024274;28;20122;-70
2022/04/08 04:03:50;;;;;;;5.85;2.08;;;;;;;2.79;100.00;94929.78;5023671;28;20064;-70
2022/04/08 04:06:16;;;;;;;2.88;1.45;;;;;;;2.78;100.00;94934.28;5023913;28;20536;-68
2022/04/08 04:08:41;;;;;;;5.00;1.52;;;;;;;2.76;100.00;94927.63;5026376;28;20040;-69
2022/04/08 04:11:07;;;;;;;3.25;1.65;;;;;;;2.67;100.00;94929.06;5027919;28;20542;-70
2022/04/08 04:13:32;;;;;;;4.72;1.75;;;;;;;2.65;100.00;94937.22;5026005;28;20420;-69
2022/04/08 04:15:57;;;;;;;5.85;1.70;;;;;;;2.68;100.00;94933.28;5025286;28;20051;-69
2022/04/08 04:18:23;;;;;;;2.63;1.42;;;;;;;2.55;100.00;94931.72;5025454;28;20037;-70
2022/04/08 04:20:50;;;;;;;8.43;2.55;;;;;;;2.60;100.00;94938.94;5024204;28;20039;-69
2022/04/08 04:23:16;;;;;;;3.47;1.60;;;;;;;2.59;100.00;94948.72;5025303;28;20033;-69
2022/04/08 04:25:41;;;;;;;4.55;2.30;;;;;;;2.58;100.00;94941.03;5025044;28;20048;-69
2022/04/08 04:28:07;;;;;;;3.75;2.42;;;;;;;2.58;100.00;94946.31;5029801;28;20056;-71
2022/04/08 04:30:33;;;;;;;5.40;2.38;;;;;;;2.59;100.00;94947.91;5038184;28;20120;-70
2022/04/08 04:33:01;;;;;;;2.85;1.55;;;;;;;2.62;100.00;94950.88;5027345;28;20041;-70
2022/04/08 04:35:27;;;;;;;4.93;2.17;;;;;;;2.68;100.00;94951.78;5026617;28;20037;-70
2022/04/08 04:37:52;;;;;;;6.03;3.00;;;;;;;2.71;100.00;94965.31;5025190;28;21237;-69
2022/04/08 04:40:18;;;;;;;6.47;2.42;;;;;;;2.72;100.00;94961.66;5021998;28;20551;-70
2022/04/08 04:42:43;;;;;;;4.68;2.17;;;;;;;2.77;100.00;94960.94;5022013;28;20126;-69
2022/04/08 04:45:11;;;;;;;6.72;1.95;;;;;;;2.74;100.00;94959.56;5039107;28;20502;-69
2022/04/08 04:47:38;;;;;;;5.13;2.80;;;;;;;2.65;100.00;94966.28;5029758;28;20037;-69
2022/04/08 04:50:05;;;;;;;5.80;2.63;;;;;;;2.50;100.00;94960.69;5024429;28;20049;-70
2022/04/08 04:52:30;;;;;;;5.82;1.73;;;;;;;2.34;100.00;94961.41;5023536;28;20045;-69
2022/04/08 04:54:56;;;;;;;4.55;1.50;;;;;;;2.23;100.00;94969.09;5024484;28;20099;-70
2022/04/08 04:57:22;;;;;;;5.25;1.80;;;;;;;2.18;100.00;94969.03;5025218;28;20441;-70
2022/04/08 04:59:48;;;;;;;3.60;2.10;;;;;;;2.21;100.00;94965.91;5021862;28;20041;-70
2022/04/08 05:02:14;;;;;;;7.18;2.42;;;;;;;2.28;100.00;94975.53;5025278;28;20049;-70
2022/04/08 05:04:39;;;;;;;3.58;2.22;;;;;;;2.27;100.00;94968.66;5023645;28;20038;-69
2022/04/08 05:07:05;;;;;;;8.88;2.70;;;;;;;2.30;100.00;94962.91;5021775;28;20095;-70
2022/04/08 05:09:30;;;;;;;4.88;2.97;;;;;;;2.25;100.00;94947.75;5025096;28;20417;-69
2022/04/08 05:11:56;;;;;;;4.25;2.10;;;;;;;2.20;100.00;94956.38;5023264;28;20071;-69
2022/04/08 05:14:24;;;;;;;6.65;2.70;;;;;;;2.22;100.00;94943.75;5021386;28;20514;-69
2022/04/08 05:16:50;;;;;;;7.03;2.15;;;;;;;2.27;100.00;94948.34;5022690;28;20044;-69
2022/04/08 05:19:16;;;;;;;5.65;2.28;;;;;;;2.40;100.00;94950.69;5023797;28;20364;-69
2022/04/08 05:21:42;;;;;;;3.40;1.90;;;;;;;2.50;100.00;94955.41;5024917;28;20411;-69
2022/04/08 05:24:08;;;;;;;5.40;2.83;;;;;;;2.51;100.00;94951.72;5024400;28;20092;-69
2022/04/08 05:26:33;;;;;;;4.68;2.35;;;;;;;2.46;100.00;94952.41;5026621;28;20549;-69
2022/04/08 05:28:59;;;;;;;6.75;2.83;;;;;;;2.44;100.00;94957.13;5024611;28;20133;-70
2022/04/08 05:31:24;;;;;;;4.93;2.60;;;;;;;2.40;100.00;94953.34;5022947;28;20069;-71
2022/04/08 05:33:49;;;;;;;7.65;2.20;;;;;;;2.34;100.00;94949.03;5022233;28;20045;-69
2022/04/08 05:36:15;;;;;;;4.82;2.78;;;;;;;2.44;100.00;94961.63;5019940;28;20526;-70
2022/04/08 05:38:40;;;;;;;5.05;2.30;;;;;;;2.56;100.00;94956.28;5022270;28;20400;-69
2022/04/08 05:41:06;;;;;;;6.32;2.33;;;;;;;2.73;100.00;94957.16;5040809;28;20036;-71
2022/04/08 05:43:31;;;;;;;4.70;2.17;;;;;;;2.78;100.00;94960.69;5022813;28;20309;-69
2022/04/08 05:45:57;;;;;;;4.53;2.10;;;;;;;2.85;100.00;94952.63;5022800;28;20491;-69
2022/04/08 05:48:23;;;;;;;7.53;1.92;;;;;;;2.87;100.00;94955.81;5020287;28;20044;-69
2022/04/08 05:50:48;;;;;;;4.07;2.30;;;;;;;2.91;100.00;94962.25;5023842;28;20079;-69
2022/04/08 05:53:16;;;;;;;7.25;2.03;;;;;;;3.01;100.00;94973.00;5023431;28;20041;-70
2022/04/08 05:55:42;;;;;;;5.40;2.03;;;;;;;3.07;100.00;94973.91;5023694;28;20047;-69
2022/04/08 05:58:08;;;;;;;4.15;2.00;;;;;;;3.00;100.00;94976.69;5022838;28;20072;-69
2022/04/08 06:00:35;;;;;;;3.85;1.52;;;;;;;3.12;100.00;94974.00;5021640;28;20468;-69
2022/04/08 06:03:01;;;;;;;4.90;1.80;;;;;;;3.17;100.00;94968.78;5022696;28;20063;-70
2022/04/08 06:05:26;;;;;;;4.60;1.50;;;;;;;3.19;100.00;94971.19;5022632;28;20024;-69
2022/04/08 06:07:54;;;;;;;4.18;2.00;;;;;;;3.24;100.00;94953.56;5024760;28;20556;-69
2022/04/08 06:10:22;;;;;;;4.72;1.98;;;;;;;3.27;100.00;94966.34;5025619;28;20420;-69
2022/04/08 06:12:57;;;;;;;2.72;1.50;;;;;;;3.17;100.00;94954.78;5022672;28;20049;-69
2022/04/08 06:15:24;;;;;;;10.85;2.22;;;;;;;3.25;100.00;94963.09;5021302;28;20033;-70
2022/04/08 06:17:50;;;;;;;4.05;2.00;;;;;;;3.29;100.00;94953.69;5022785;28;20037;-70
2022/04/08 06:20:17;;;;;;;6.38;1.60;;;;;;;3.40;100.00;94953.84;5022852;28;20034;-69
2022/04/08 06:22:43;;;;;;;4.03;1.58;;;;;;;3.43;100.00;94959.47;5024685;28;20128;-70
2022/04/08 06:25:12;;;;;;;3.83;1.60;;;;;;;3.44;100.00;94955.78;5026332;28;20200;-69
2022/04/08 06:27:38;;;;;;;3.15;1.55;;;;;;;3.53;100.00;94959.63;5026400;28;20485;-70
2022/04/08 06:30:09;;;;;;;3.05;1.60;;;;;;;3.62;100.00;94963.47;5025945;28;20045;-69
2022/04/08 06:32:35;;;;;;;4.07;1.30;;;;;;;3.66;100.00;94949.72;5027545;28;20060;-69
2022/04/08 06:35:01;;;;;;;3.55;1.30;;;;;;;3.71;100.00;94949.81;5025298;28;20037;-69
2022/04/08 06:37:28;;;;;;;3.63;1.45;;;;;;;3.75;100.00;94946.47;5026261;28;20437;-69
2022/04/08 06:39:54;;;;;;;5.13;1.67;;;;;;;3.96;100.00;94936.16;5027222;28;20201;-70
2022/04/08 06:42:20;;;;;;;2.67;1.00;;;;;;;4.04;100.00;94941.03;5023759;28;20404;-70
2022/04/08 06:44:46;;;;;;;3.20;1.20;;;;;;;4.09;100.00;94926.03;5024128;28;20037;-69
2022/04/08 06:47:12;;;;;;;4.15;1.30;;;;;;;4.11;100.00;94936.34;5026552;28;20376;-69
2022/04/08 06:49:43;;;;;;;3.58;1.40;;;;;;;4.12;100.00;94940.59;5025027;28;20046;-69
2022/04/08 06:52:09;;;;;;;4.65;1.38;;;;;;;4.16;100.00;94933.78;5027108;28;20183;-69
2022/04/08 06:54:35;;;;;;;3.13;1.40;;;;;;;4.28;100.00;94931.84;5025033;28;20044;-71
2022/04/08 06:57:00;;;;;;;8.27;1.40;;;;;;;4.26;100.00;94925.16;5022133;28;20381;-69
2022/04/08 06:59:26;;;;;;;4.25;1.60;;;;;;;4.30;100.00;94936.88;5025044;28;20095;-70
2022/04/08 07:01:51;;;;;;;4.07;1.27;;;;;;;4.31;100.00;94935.84;5026661;28;20059;-70
2022/04/08 07:04:17;;;;;;;3.50;1.35;;;;;;;4.33;100.00;94936.38;5027789;28;20094;-69
2022/04/08 07:06:42;;;;;;;3.30;1.30;;;;;;;4.32;100.00;94919.69;5026361;28;20037;-69
2022/04/08 07:09:08;;;;;;;2.78;1.30;;;;;;;4.38;100.00;94921.38;5028123;28;20122;-70
2022/04/08 07:11:34;;;;;;;12.55;1.38;;;;;;;4.44;100.00;94920.38;5027317;28;20065;-69
2022/04/08 07:14:00;;;;;;;5.35;1.50;;;;;;;4.51;100.00;94916.72;5027623;28;20056;-70
2022/04/08 07:16:25;;;;;;;3.67;1.35;;;;;;;4.59;100.00;94921.59;5025819;28;20037;-69
2022/04/08 07:18:51;;;;;;;6.55;1.40;;;;;;;4.60;100.00;94920.56;5027594;28;20448;-71
2022/04/08 07:21:16;;;;;;;4.03;1.45;;;;;;;4.50;100.00;94918.56;5028873;28;20380;-70
2022/04/08 07:23:42;;;;;;;4.22;1.42;;;;;;;4.46;100.00;94920.94;5028502;28;20705;-69
2022/04/08 07:26:07;;;;;;;6.72;1.40;;;;;;;4.41;100.00;94928.00;5025872;28;20060;-71
2022/04/08 07:28:33;;;;;;;4.28;1.50;;;;;;;4.36;100.00;94930.63;5028049;28;20166;-69
2022/04/08 07:31:01;;;;;;;9.10;2.17;;;;;;;4.30;100.00;94932.38;5029625;28;20176;-70
2022/04/08 07:33:26;;;;;;;2.65;1.45;;;;;;;4.36;100.00;94922.66;5025136;28;20361;-71
2022/04/08 07:35:52;;;;;;;3.53;1.40;;;;;;;4.46;100.00;94923.59;5030065;28;20309;-70
2022/04/08 07:38:18;;;;;;;3.45;1.60;;;;;;;4.47;100.00;94919.88;5032657;28;20159;-70
2022/04/08 07:40:44;;;;;;;3.42;1.65;;;;;;;4.47;100.00;94927.03;5028039;28;20075;-70
2022/04/08 07:43:09;;;;;;;4.35;1.25;;;;;;;3.95;100.00;94926.63;5023320;28;20050;-69
2022/04/08 07:45:35;;;;;;;3.03;1.17;;;;;;;4.02;100.00;94929.88;5024653;28;20129;-70
2022/04/08 07:48:01;;;;;;;3.20;1.50;;;;;;;3.85;100.00;94922.00;5024474;28;20479;-71
2022/04/08 07:50:27;;;;;;;5.63;1.90;;;;;;;3.62;100.00;94931.72;5027052;28;20407;-70
2022/04/08 07:52:53;;;;;;;4.43;1.92;;;;;;;3.42;100.00;94930.59;5055807;28;20041;-70
2022/04/08 07:55:24;;;;;;;3.58;1.60;;;;;;;3.66;100.00;94934.69;5026449;28;20541;-70
2022/04/08 07:57:51;;;;;;;6.32;1.75;;;;;;;3.80;100.00;94929.84;5026342;28;20049;-70
2022/04/08 08:00:21;;;;;;;4.38;1.90;;;;;;;3.58;100.00;94927.97;5032161;28;20253;-70
2022/04/08 08:02:48;;;;;;;5.33;2.43;;;;;;;3.41;100.00;94935.06;5027859;28;20520;-70
2022/04/08 08:05:14;;;;;;;3.83;1.90;;;;;;;3.17;100.00;94938.91;5023943;28;20037;-71
2022/04/08 08:07:48;;;;;;;5.38;2.22;;;;;;;3.08;100.00;94941.16;5024268;28;20148;-71
2022/04/08 08:10:15;;;;;;;9.82;4.28;;;;;;;3.21;100.00;94945.34;5029288;28;20128;-70
2022/04/08 08:12:40;;;;;;;11.20;4.78;;;;;;;3.31;100.00;94935.72;5025819;28;20488;-70
2022/04/08 08:15:06;;;;;;;5.72;2.85;;;;;;;3.45;100.00;94941.50;5024242;28;20045;-70
2022/04/08 08:17:31;;;;;;;6.88;2.90;;;;;;;3.66;100.00;94945.28;5021903;28;20115;-70
2022/04/08 08:19:57;;;;;;;6.90;3.50;;;;;;;3.72;100.00;94940.84;5023458;28;20336;-71
2022/04/08 08:22:23;;;;;;;9.18;4.03;;;;;;;3.58;100.00;94935.06;5025981;28;20029;-71
2022/04/08 08:24:49;;;;;;;4.35;2.50;;;;;;;3.54;100.00;94933.97;5025624;28;20037;-70
2022/04/08 08:27:15;;;;;;;4.80;2.22;;;;;;;3.41;100.00;94939.56;5025899;28;20045;-70
2022/04/08 08:29:41;;;;;;;7.07;2.65;;;;;;;3.44;100.00;94939.09;5026227;28;20124;-70
2022/04/08 08:32:06;;;;;;;7.07;2.75;;;;;;;3.54;100.00;94941.91;5026446;28;20065;-70
2022/04/08 08:34:32;;;;;;;9.80;2.92;;;;;;;3.51;100.00;94935.25;5026113;28;20041;-71
2022/04/08 08:36:59;;;;;;;3.75;1.88;;;;;;;3.12;100.00;94936.19;5000022;28;20065;-70
2022/04/08 08:39:26;;;;;;;6.00;3.10;;;;;;;2.99;100.00;94934.66;5025206;28;20124;-71
2022/04/08 08:41:53;;;;;;;8.23;4.03;;;;;;;3.08;100.00;94920.78;5026053;28;20364;-70
2022/04/08 08:44:19;;;;;;;4.40;2.40;;;;;;;2.92;100.00;94924.22;5024961;28;20052;-70
2022/04/08 08:46:45;;;;;;;9.25;4.22;;;;;;;3.31;100.00;94919.06;5024409;28;20034;-70
2022/04/08 08:49:14;;;;;;;6.38;3.00;;;;;;;3.37;100.00;94919.94;5025942;28;20226;-71
2022/04/08 08:51:42;;;;;;;8.05;3.88;;;;;;;3.51;100.00;94916.75;5025668;28;20057;-70
2022/04/08 08:54:07;;;;;;;5.43;2.25;;;;;;;3.50;100.00;94922.25;5027826;28;20041;-69
2022/04/08 08:56:33;;;;;;;5.40;2.78;;;;;;;3.48;100.00;94919.84;5026201;28;20095;-71
2022/04/08 08:58:58;;;;;;;7.60;2.75;;;;;;;3.60;100.00;94902.06;5025423;28;20049;-70
2022/04/08 09:01:24;;;;;;;5.90;2.70;;;;;;;3.64;100.00;94905.00;5025231;28;20048;-70
2022/04/08 09:03:49;;;;;;;5.88;2.72;;;;;;;3.51;100.00;94903.53;5025151;28;20377;-69
2022/04/08 09:06:16;;;;;;;8.18;3.83;;;;;;;3.58;100.00;94913.91;5023277;28;20133;-69
2022/04/08 09:08:42;;;;;;;9.85;4.13;;;;;;;3.81;100.00;94891.75;5025652;28;20347;-70
2022/04/08 09:11:07;;;;;;;8.10;2.95;;;;;;;4.07;100.00;94895.56;5025516;28;20060;-70
2022/04/08 09:13:46;;;;;;;8.80;2.70;;;;;;;3.79;100.00;94878.78;5024551;28;20495;-70
2022/04/08 09:16:12;;;;;;;5.13;2.05;;;;;;;3.92;100.00;94885.56;5026093;28;20045;-71
2022/04/08 09:18:41;;;;;;;9.70;3.00;;;;;;;4.19;100.00;94889.06;5022890;28;20425;-71
2022/04/08 09:21:07;;;;;;;5.30;2.97;;;;;;;4.47;100.00;94874.06;5022976;28;20048;-69
2022/04/08 09:23:34;;;;;;;5.40;1.70;;;;;;;4.44;100.00;94864.75;5025429;28;20041;-71
2022/04/08 09:26:05;;;;;;;7.15;2.53;;;;;;;4.59;100.00;94861.47;5024705;28;20042;-69
2022/04/08 09:28:40;;;;;;;6.55;2.20;;;;;;;4.33;100.00;94852.44;5024982;28;20051;-71
2022/04/08 09:31:06;;;;;;;3.55;1.98;;;;;;;4.24;100.00;94853.94;5022043;28;20053;-70
2022/04/08 09:33:32;;;;;;;3.75;2.03;;;;;;;4.44;100.00;94840.94;5023130;28;20400;-70
2022/04/08 09:35:58;;;;;;;6.93;2.40;;;;;;;4.42;100.00;94836.91;5025457;28;20145;-71
2022/04/08 09:38:30;;;;;;;4.50;1.90;;;;;;;4.52;100.00;94836.22;4985132;28;20046;-70
2022/04/08 09:41:07;;;;;;;7.45;2.05;;;;;;;4.64;100.00;94835.00;5004046;28;20417;-70
2022/04/08 09:43:37;;;;;;;5.45;2.10;;;;;;;4.66;100.00;94826.81;5003845;28;20087;-71
2022/04/08 09:46:20;;;;;;;5.47;2.23;;;;;;;4.76;100.00;94821.63;5003970;28;20104;-71
2022/04/08 09:48:47;;;;;;;5.97;2.40;;;;;;;4.62;100.00;94807.97;5002246;28;20478;-70
2022/04/08 09:51:20;;;;;;;5.13;2.00;;;;;;;4.76;100.00;94811.03;5002678;28;20061;-69
2022/04/08 09:54:02;;;;;;;4.75;1.92;;;;;;;4.78;100.00;94800.97;5005811;28;20065;-70
2022/04/08 09:56:29;;;;;;;7.53;2.53;;;;;;;4.64;100.00;94800.56;5003741;28;20447;-69
2022/04/08 09:59:14;;;;;;;3.75;1.63;;;;;;;4.53;100.00;94798.88;5002241;28;20437;-70
2022/04/08 10:01:44;;;;;;;5.55;2.20;;;;;;;4.47;100.00;94799.88;5014700;28;20053;-70
2022/04/08 10:04:10;;;;;;;6.05;2.50;;;;;;;4.95;100.00;94783.06;5026335;28;20484;-70
2022/04/08 10:06:37;;;;;;;7.43;2.22;;;;;;;5.01;100.00;94783.94;5023477;28;20461;-70
2022/04/08 10:09:05;;;;;;;4.85;2.17;;;;;;;4.79;100.00;94781.34;5022027;28;20152;-71
2022/04/08 10:11:50;;;;;;;7.22;2.85;;;;;;;4.79;100.00;94780.56;5023253;28;20447;-69
2022/04/08 10:14:42;;;;;;;8.40;2.58;;;;;;;4.69;100.00;94783.94;5022847;28;20044;-70
2022/04/08 10:17:08;;;;;;;5.47;2.40;;;;;;;4.70;100.00;94772.28;5022526;28;20037;-70
2022/04/08 10:19:34;;;;;;;4.55;2.50;;;;;;;4.55;100.00;94767.63;5022885;28;20033;-69
2022/04/08 10:22:00;;;;;;;6.38;2.00;;;;;;;4.64;100.00;94774.06;5024422;28;20107;-71
2022/04/08 10:24:30;;;;;;;7.55;2.50;;;;;;;4.40;100.00;94770.16;5024690;28;20416;-69
2022/04/08 10:27:05;;;;;;;10.93;3.97;;;;;;;4.65;100.00;94783.63;5026463;28;20421;-70
2022/04/08 10:29:34;;;;;;;6.40;2.92;;;;;;;4.84;100.00;94776.13;4765677;28;10000562;-70
2022/04/08 10:32:05;;;;;;;8.10;2.20;;;;;;;4.67;100.00;94772.75;4994413;28;20261;-70
2022/04/08 10:34:32;;;;;;;6.72;2.92;;;;;;;4.63;100.00;94776.97;5021648;28;20151;-71
2022/04/08 10:37:13;;;;;;;5.72;2.60;;;;;;;4.93;100.00;94771.94;5021607;28;20040;-71
2022/04/08 10:39:42;;;;;;;5.38;2.75;;;;;;;5.13;100.00;94765.16;5021782;28;20269;-70
2022/04/08 10:42:20;;;;;;;4.65;2.05;;;;;;;5.31;100.00;94754.16;5021721;28;20476;-70
2022/04/08 10:44:46;;;;;;;4.22;2.03;;;;;;;5.49;100.00;94755.59;5019650;28;20061;-70
2022/04/08 10:47:17;;;;;;;4.55;2.60;;;;;;;5.61;100.00;94758.03;5020993;28;20645;-70
2022/04/08 10:49:58;;;;;;;5.95;2.88;;;;;;;5.66;100.00;94752.75;5021631;28;20033;-69
2022/04/08 10:52:24;;;;;;;;;;;;;;;5.61;100.00;94753.53;5021192;28;20041;-70
2022/04/08 10:54:51;;;;;;;8.57;3.15;;;;;;;5.64;100.00;94753.00;5021391;28;20415;-70
2022/04/08 10:57:36;;;;;;;8.00;2.03;;;;;;;5.80;100.00;94745.91;5021150;28;20127;-70
2022/04/08 11:00:14;;;;;;;4.13;2.42;;;;;;;5.66;100.00;94748.22;5018132;28;20374;-70
2022/04/08 11:02:44;;;;;;;3.97;1.98;;;;;;;5.75;100.00;94744.00;5021594;28;20057;-70
2022/04/08 11:05:12;;;;;;;4.20;1.90;;;;;;;5.73;100.00;94743.50;5020856;28;20764;-70
2022/04/08 11:07:42;;;;;;;5.32;2.10;;;;;;;5.82;100.00;94736.63;5022115;28;20037;-71
2022/04/08 11:10:10;;;;;;;4.88;1.95;;;;;;;5.50;100.00;94728.78;5021005;28;20041;-70
2022/04/08 11:12:53;;;;;;;6.07;1.90;;;;;;;5.51;100.00;94724.28;5024709;28;20071;-70
2022/04/08 11:15:24;;;;;;;4.13;1.67;;;;;;;5.58;100.00;94720.34;5021988;28;20033;-70
2022/04/08 11:17:51;;;;;;;7.07;2.55;;;;;;;5.74;100.00;94712.44;5026402;28;20388;-70
2022/04/08 11:20:18;;;;;;;5.55;2.15;;;;;;;5.67;100.00;94717.19;5025270;28;20063;-70
2022/04/08 11:22:47;;;;;;;9.35;2.40;;;;;;;5.69;100.00;94715.09;5025849;28;20175;-70
2022/04/08 11:25:33;;;;;;;9.52;2.88;;;;;;;5.98;100.00;94696.88;5026545;28;20059;-70
2022/04/08 11:28:03;;;;;;;8.35;1.80;;;;;;;5.69;100.00;94688.56;5024083;28;20049;-71
2022/04/08 11:30:30;;;;;;;10.07;2.50;;;;;;;5.63;100.00;94679.75;4994063;28;20045;-70
2022/04/08 11:32:57;;;;;;;9.50;2.90;;;;;;;5.72;100.00;94680.84;5022282;28;20095;-70